createdAt,value
2016-05-28T00:00:45.829Z,83.61
2016-05-28T00:01:48.851Z,83.52
2016-05-28T00:02:48.729Z,83.61
2016-05-28T00:03:48.684Z,83.42
2016-05-28T00:04:46.121Z,83.14
2016-05-28T00:05:45.437Z,83.23
2016-05-28T00:06:45.549Z,83.23
2016-05-28T00:07:45.489Z,82.75
2016-05-28T00:08:45.461Z,82.75
2016-05-28T00:09:45.401Z,83.33
2016-05-28T00:10:48.204Z,83.42
2016-05-28T00:11:48.409Z,83.33
2016-05-28T00:12:45.253Z,83.33
2016-05-28T00:13:45.068Z,83.52
2016-05-28T00:14:48.167Z,83.52
2016-05-28T00:15:48.139Z,83.61
2016-05-28T00:16:45.482Z,83.81
2016-05-28T00:17:45.234Z,84
2016-05-28T00:18:44.987Z,83.81
2016-05-28T00:19:44.928Z,83.42
2016-05-28T00:20:44.884Z,83.61
2016-05-28T00:21:44.855Z,83.81
2016-05-28T00:22:44.795Z,83.48
2016-05-28T00:23:47.598Z,83.61
2016-05-28T00:24:44.692Z,83.48
2016-05-28T00:25:44.678Z,83.67
2016-05-28T00:26:44.461Z,83.52
2016-05-28T00:27:44.559Z,83.81
2016-05-28T00:28:44.561Z,83.61
2016-05-28T00:29:44.470Z,83.71
2016-05-28T00:30:44.427Z,83.81
2016-05-28T00:31:44.225Z,84.19
2016-05-28T00:32:44.338Z,84.19
2016-05-28T00:33:47.294Z,84.34
2016-05-28T00:34:47.530Z,83.95
2016-05-28T00:35:44.393Z,84.09
2016-05-28T00:36:47.568Z,84.05
2016-05-28T00:37:47.117Z,84.05
2016-05-28T00:38:44.057Z,84.15
2016-05-28T00:39:47.044Z,84.19
2016-05-28T00:40:46.953Z,83.86
2016-05-28T00:41:49.943Z,83.86
2016-05-28T00:42:47.084Z,83.95
2016-05-28T00:43:43.837Z,84.05
2016-05-28T00:44:43.792Z,84.25
2016-05-28T00:45:43.779Z,84.05
2016-05-28T00:46:46.688Z,84.63
2016-05-28T00:47:46.644Z,84.63
2016-05-28T00:48:43.787Z,84.53
2016-05-28T00:49:43.556Z,84.53
2016-05-28T00:50:46.495Z,84.53
2016-05-28T00:51:43.451Z,84.53
2016-05-28T00:52:46.423Z,84.44
2016-05-28T00:53:43.347Z,84.63
2016-05-28T00:54:43.350Z,84.53
2016-05-28T00:55:46.275Z,84.05
2016-05-28T00:56:43.214Z,84.28
2016-05-28T00:57:43.171Z,84.25
2016-05-28T00:58:43.111Z,84.05
2016-05-28T00:59:46.097Z,84.25
2016-05-28T01:00:46.039Z,84.15
2016-05-28T01:01:42.978Z,84.25
2016-05-28T01:02:42.933Z,83.67
2016-05-28T01:03:45.905Z,83.48
2016-05-28T01:04:43.205Z,83.95
2016-05-28T01:05:42.786Z,83.48
2016-05-28T01:06:42.757Z,83.48
2016-05-28T01:07:42.697Z,83.29
2016-05-28T01:08:45.669Z,83.38
2016-05-28T01:09:42.547Z,83.29
2016-05-28T01:10:42.675Z,83.29
2016-05-28T01:11:42.520Z,83.38
2016-05-28T01:12:42.320Z,83.19
2016-05-28T01:13:42.495Z,83.19
2016-05-28T01:14:42.435Z,83.19
2016-05-28T01:15:42.406Z,83.09
2016-05-28T01:16:42.301Z,82.9
2016-05-28T01:17:42.240Z,82.9
2016-05-28T01:18:42.587Z,82.9
2016-05-28T01:19:42.479Z,83
2016-05-28T01:20:45.107Z,83
2016-05-28T01:21:42.064Z,83.09
2016-05-28T01:22:42.003Z,82.81
2016-05-28T01:23:41.975Z,82.71
2016-05-28T01:24:41.915Z,82.42
2016-05-28T01:25:44.870Z,82.42
2016-05-28T01:26:42.358Z,81.95
2016-05-28T01:27:41.969Z,82.32
2016-05-28T01:28:44.739Z,82.23
2016-05-28T01:29:44.695Z,81.85
2016-05-28T01:30:41.634Z,81.85
2016-05-28T01:31:44.606Z,81.27
2016-05-28T01:32:41.764Z,81.27
2016-05-28T01:33:44.486Z,81.46
2016-05-28T01:34:44.661Z,81.75
2016-05-28T01:35:41.397Z,81.75
2016-05-28T01:36:44.369Z,81.75
2016-05-28T01:37:41.513Z,81.66
2016-05-28T01:38:41.280Z,81.75
2016-05-28T01:39:41.065Z,81.66
2016-05-28T01:40:44.176Z,81.46
2016-05-28T01:41:41.118Z,80.79
2016-05-28T01:42:41.073Z,81.18
2016-05-28T01:43:41.029Z,80.99
2016-05-28T01:44:41.032Z,81.08
2016-05-28T01:45:40.940Z,81.66
2016-05-28T01:46:43.896Z,81.27
2016-05-28T01:47:40.852Z,81.46
2016-05-28T01:48:40.807Z,80.89
2016-05-28T01:49:40.592Z,80.99
2016-05-28T01:50:40.688Z,81.18
2016-05-28T01:51:40.659Z,80.7
2016-05-28T01:52:40.600Z,81.08
2016-05-28T01:53:40.602Z,80.7
2016-05-28T01:54:43.527Z,80.6
2016-05-28T01:55:40.498Z,80.7
2016-05-28T01:56:40.423Z,80.7
2016-05-28T01:57:40.395Z,80.7
2016-05-28T01:58:43.178Z,80.6
2016-05-28T01:59:40.275Z,80.56
2016-05-28T02:00:40.247Z,80.56
2016-05-28T02:01:43.186Z,80.85
2016-05-28T02:02:43.142Z,80.85
2016-05-28T02:03:40.097Z,80.99
2016-05-28T02:04:40.054Z,80.89
2016-05-28T02:05:40.010Z,80.94
2016-05-28T02:06:42.950Z,80.76
2016-05-28T02:07:39.750Z,80.85
2016-05-28T02:08:40.158Z,81.13
2016-05-28T02:09:45.818Z,81.33
2016-05-28T02:10:39.774Z,81.33
2016-05-28T02:11:39.714Z,81.62
2016-05-28T02:12:42.669Z,81.23
2016-05-28T02:13:42.624Z,81.52
2016-05-28T02:14:39.424Z,81.71
2016-05-28T02:15:42.568Z,81.9
2016-05-28T02:16:42.493Z,81.62
2016-05-28T02:17:39.276Z,81.43
2016-05-28T02:18:39.388Z,81.52
2016-05-28T02:19:39.344Z,81.9
2016-05-28T02:20:39.285Z,81.71
2016-05-28T02:21:42.240Z,81.71
2016-05-28T02:22:42.211Z,82.19
2016-05-28T02:23:42.356Z,82.48
2016-05-28T02:24:42.123Z,82.38
2016-05-28T02:25:42.064Z,82.48
2016-05-28T02:26:42.004Z,82.76
2016-05-28T02:27:41.975Z,82.96
2016-05-28T02:28:38.931Z,82.96
2016-05-28T02:29:39.075Z,82.96
2016-05-28T02:30:38.827Z,82.96
2016-05-28T02:31:38.783Z,83.05
2016-05-28T02:32:38.723Z,83.05
2016-05-28T02:33:38.678Z,82.86
2016-05-28T02:34:38.588Z,82.76
2016-05-28T02:35:41.605Z,82.57
2016-05-28T02:36:38.749Z,82.86
2016-05-28T02:37:38.503Z,83.05
2016-05-28T02:38:38.302Z,83.34
2016-05-28T02:39:38.399Z,83.63
2016-05-28T02:40:38.354Z,83.92
2016-05-28T02:41:38.310Z,83.44
2016-05-28T02:42:38.265Z,83.92
2016-05-28T02:43:38.222Z,84.11
2016-05-28T02:44:38.177Z,84.01
2016-05-28T02:45:38.117Z,83.97
2016-05-28T02:46:38.074Z,84.55
2016-05-28T02:47:41.045Z,84.26
2016-05-28T02:48:38.001Z,84.92
2016-05-28T02:49:38.081Z,84.74
2016-05-28T02:50:37.881Z,84.92
2016-05-28T02:51:37.837Z,84.74
2016-05-28T02:52:37.793Z,84.64
2016-05-28T02:53:43.749Z,84.74
2016-05-28T02:54:40.547Z,85.12
2016-05-28T02:55:40.659Z,85.21
2016-05-28T02:56:40.600Z,85.31
2016-05-28T02:57:40.556Z,85.12
2016-05-28T02:58:40.527Z,84.92
2016-05-28T02:59:37.311Z,85.69
2016-05-28T03:00:37.423Z,85.69
2016-05-28T03:01:40.363Z,85.5
2016-05-28T03:02:37.320Z,85.5
2016-05-28T03:03:37.338Z,85.79
2016-05-28T03:04:37.262Z,85.5
2016-05-28T03:05:37.389Z,85.21
2016-05-28T03:06:37.142Z,85.88
2016-05-28T03:07:40.082Z,85.79
2016-05-28T03:08:37.227Z,85.69
2016-05-28T03:09:43.010Z,86.27
2016-05-28T03:10:39.950Z,85.98
2016-05-28T03:11:39.938Z,85.98
2016-05-28T03:12:36.863Z,85.69
2016-05-28T03:13:37.208Z,85.98
2016-05-28T03:14:39.774Z,85.98
2016-05-28T03:15:36.729Z,85.98
2016-05-28T03:16:39.669Z,86.36
2016-05-28T03:17:36.609Z,85.98
2016-05-28T03:18:42.675Z,85.6
2016-05-28T03:19:39.552Z,85.6
2016-05-28T03:20:39.509Z,85.79
2016-05-28T03:21:36.432Z,85.5
2016-05-28T03:22:39.389Z,85.5
2016-05-28T03:23:36.345Z,85.6
2016-05-28T03:24:39.145Z,85.69
2016-05-28T03:25:36.256Z,85.83
2016-05-28T03:26:36.196Z,85.98
2016-05-28T03:27:36.152Z,85.6
2016-05-28T03:28:39.170Z,85.98
2016-05-28T03:29:36.048Z,85.98
2016-05-28T03:30:36.004Z,86.17
2016-05-28T03:31:35.959Z,85.88
2016-05-28T03:32:35.916Z,85.98
2016-05-28T03:33:35.856Z,85.98
2016-05-28T03:34:35.671Z,86.36
2016-05-28T03:35:35.767Z,86.08
2016-05-28T03:36:38.942Z,86.36
2016-05-28T03:37:35.522Z,86.84
2016-05-28T03:38:44.838Z,86.84
2016-05-28T03:39:38.605Z,86.55
2016-05-28T03:40:35.562Z,86.84
2016-05-28T03:41:41.503Z,86.74
2016-05-28T03:42:38.443Z,86.94
2016-05-28T03:43:35.398Z,87.13
2016-05-28T03:44:35.355Z,86.74
2016-05-28T03:45:38.154Z,86.74
2016-05-28T03:46:38.250Z,86.74
2016-05-28T03:47:38.221Z,86.84
2016-05-28T03:48:35.162Z,87.17
2016-05-28T03:49:35.852Z,87.08
2016-05-28T03:50:35.465Z,86.84
2016-05-28T03:51:35.029Z,86.74
2016-05-28T03:52:37.970Z,86.84
2016-05-28T03:53:34.785Z,86.74
2016-05-28T03:54:37.882Z,86.74
2016-05-28T03:55:43.821Z,86.84
2016-05-28T03:56:37.792Z,86.74
2016-05-28T03:57:34.748Z,86.65
2016-05-28T03:58:37.704Z,86.36
2016-05-28T03:59:37.659Z,87.13
2016-05-28T04:00:37.600Z,87.03
2016-05-28T04:01:34.556Z,86.94
2016-05-28T04:02:37.512Z,86.84
2016-05-28T04:03:34.468Z,86.84
2016-05-28T04:04:34.408Z,86.84
2016-05-28T04:05:37.223Z,86.65
2016-05-28T04:06:37.320Z,87.13
2016-05-28T04:07:37.494Z,86.65
2016-05-28T04:08:37.215Z,86.94
2016-05-28T04:09:37.172Z,86.65
2016-05-28T04:10:34.143Z,87.23
2016-05-28T04:11:34.083Z,87.32
2016-05-28T04:12:34.039Z,87.23
2016-05-28T04:13:34.026Z,87.32
2016-05-28T04:14:33.935Z,87.23
2016-05-28T04:15:33.891Z,87.23
2016-05-28T04:16:33.847Z,87.23
2016-05-28T04:17:36.787Z,87.41
2016-05-28T04:18:33.961Z,87.41
2016-05-28T04:19:36.543Z,86.94
2016-05-28T04:20:33.654Z,87.03
2016-05-28T04:21:33.626Z,87.03
2016-05-28T04:22:36.565Z,87.03
2016-05-28T04:23:33.521Z,87.13
2016-05-28T04:24:33.493Z,87.41
2016-05-28T04:25:33.418Z,87.32
2016-05-28T04:26:33.420Z,87.32
2016-05-28T04:27:36.329Z,87.23
2016-05-28T04:28:36.284Z,87.03
2016-05-28T04:29:33.428Z,87.32
2016-05-28T04:30:33.181Z,87.23
2016-05-28T04:31:36.152Z,87.32
2016-05-28T04:32:33.077Z,87.23
2016-05-28T04:33:33.033Z,87.32
2016-05-28T04:34:32.863Z,87.13
2016-05-28T04:35:33.194Z,87.13
2016-05-28T04:36:35.900Z,87.23
2016-05-28T04:37:32.841Z,87.32
2016-05-28T04:38:32.812Z,87.9
2016-05-28T04:39:32.752Z,87.7
2016-05-28T04:40:32.708Z,87.7
2016-05-28T04:41:41.805Z,87.51
2016-05-28T04:42:35.854Z,87.41
2016-05-28T04:43:35.575Z,87.51
2016-05-28T04:44:32.516Z,87.32
2016-05-28T04:45:35.331Z,87.66
2016-05-28T04:46:32.646Z,87.85
2016-05-28T04:47:38.414Z,87.85
2016-05-28T04:48:38.355Z,87.56
2016-05-28T04:49:35.576Z,87.66
2016-05-28T04:50:32.251Z,87.76
2016-05-28T04:51:35.254Z,87.85
2016-05-28T04:52:32.146Z,87.76
2016-05-28T04:53:32.102Z,87.76
2016-05-28T04:54:32.043Z,87.66
2016-05-28T04:55:34.998Z,87.66
2016-05-28T04:56:34.954Z,87.76
2016-05-28T04:57:31.909Z,87.8
2016-05-28T04:58:34.881Z,87.9
2016-05-28T04:59:37.837Z,87.7
2016-05-28T05:00:31.778Z,87.99
2016-05-28T05:01:31.717Z,87.99
2016-05-28T05:02:34.689Z,87.99
2016-05-28T05:03:34.817Z,87.99
2016-05-28T05:04:31.741Z,87.8
2016-05-28T05:05:31.541Z,87.9
2016-05-28T05:06:31.543Z,87.76
2016-05-28T05:07:31.436Z,88.28
2016-05-28T05:08:31.402Z,88.28
2016-05-28T05:09:34.382Z,88.18
2016-05-28T05:10:31.347Z,88.18
2016-05-28T05:11:31.186Z,88.09
2016-05-28T05:12:31.307Z,88.09
2016-05-28T05:13:31.282Z,88.28
2016-05-28T05:14:31.451Z,88.09
2016-05-28T05:15:37.212Z,88.18
2016-05-28T05:16:31.191Z,88.18
2016-05-28T05:17:31.125Z,88.28
2016-05-28T05:18:34.088Z,88.37
2016-05-28T05:19:31.046Z,87.8
2016-05-28T05:20:30.833Z,87.8
2016-05-28T05:21:33.793Z,88.37
2016-05-28T05:22:31.111Z,87.9
2016-05-28T05:23:30.912Z,88.18
2016-05-28T05:24:33.855Z,88.37
2016-05-28T05:25:30.764Z,87.9
2016-05-28T05:26:33.752Z,88.37
2016-05-28T05:27:30.678Z,88.18
2016-05-28T05:28:30.619Z,88.28
2016-05-28T05:29:33.590Z,88.18
2016-05-28T05:30:30.547Z,87.9
2016-05-28T05:31:30.488Z,87.9
2016-05-28T05:32:30.460Z,88.28
2016-05-28T05:33:30.400Z,87.99
2016-05-28T05:34:31.059Z,88.28
2016-05-28T05:35:33.154Z,88.18
2016-05-28T05:36:33.658Z,88.37
2016-05-28T05:37:33.207Z,88.37
2016-05-28T05:38:30.163Z,88.09
2016-05-28T05:39:36.118Z,87.8
2016-05-28T05:40:33.075Z,87.8
2016-05-28T05:41:30.031Z,87.7
2016-05-28T05:42:29.971Z,87.9
2016-05-28T05:43:29.926Z,87.99
2016-05-28T05:44:32.898Z,87.61
2016-05-28T05:45:29.714Z,87.61
2016-05-28T05:46:29.795Z,87.65
2016-05-28T05:47:29.734Z,87.61
2016-05-28T05:48:29.689Z,87.84
2016-05-28T05:49:30.506Z,87.9
2016-05-28T05:50:30.117Z,87.74
2016-05-28T05:51:32.573Z,87.99
2016-05-28T05:52:32.514Z,88.09
2016-05-28T05:53:29.453Z,87.8
2016-05-28T05:54:29.409Z,87.74
2016-05-28T05:55:29.365Z,87.84
2016-05-28T05:56:32.525Z,88.03
2016-05-28T05:57:29.292Z,88.23
2016-05-28T05:58:29.217Z,87.51
2016-05-28T05:59:29.173Z,87.27
2016-05-28T06:00:29.160Z,87.37
2016-05-28T06:01:29.085Z,87.9
2016-05-28T06:02:32.055Z,87.84
2016-05-28T06:03:34.981Z,88.23
2016-05-28T06:04:32.405Z,88.32
2016-05-28T06:05:31.893Z,87.65
2016-05-28T06:06:28.863Z,88.13
2016-05-28T06:07:29.022Z,87.46
2016-05-28T06:08:31.759Z,87.46
2016-05-28T06:09:34.732Z,87.74
2016-05-28T06:10:28.671Z,88.23
2016-05-28T06:11:28.611Z,87.94
2016-05-28T06:12:28.411Z,88.23
2016-05-28T06:13:31.523Z,88.23
2016-05-28T06:14:28.479Z,87.74
2016-05-28T06:15:28.450Z,87.55
2016-05-28T06:16:28.375Z,87.55
2016-05-28T06:17:31.190Z,87.84
2016-05-28T06:18:28.474Z,87.65
2016-05-28T06:19:28.242Z,87.55
2016-05-28T06:20:28.542Z,87.46
2016-05-28T06:21:28.139Z,87.55
2016-05-28T06:22:34.109Z,87.17
2016-05-28T06:23:31.269Z,87.55
2016-05-28T06:24:28.006Z,87.55
2016-05-28T06:25:30.961Z,87.55
2016-05-28T06:26:27.917Z,87.55
2016-05-28T06:27:30.873Z,87.74
2016-05-28T06:28:33.844Z,88.03
2016-05-28T06:29:27.613Z,87.37
2016-05-28T06:30:30.725Z,87.27
2016-05-28T06:31:27.696Z,87.17
2016-05-28T06:32:27.683Z,87.46
2016-05-28T06:33:27.436Z,87.27
2016-05-28T06:34:27.549Z,87.37
2016-05-28T06:35:30.598Z,87.37
2016-05-28T06:36:27.444Z,87.55
2016-05-28T06:37:30.399Z,87.31
2016-05-28T06:38:27.356Z,86.83
2016-05-28T06:39:27.312Z,86.93
2016-05-28T06:40:27.268Z,87.02
2016-05-28T06:41:27.207Z,86.79
2016-05-28T06:42:30.163Z,86.98
2016-05-28T06:43:26.948Z,86.79
2016-05-28T06:44:30.075Z,86.79
2016-05-28T06:45:26.875Z,86.88
2016-05-28T06:46:26.970Z,86.88
2016-05-28T06:47:26.927Z,86.6
2016-05-28T06:48:29.898Z,86.93
2016-05-28T06:49:30.104Z,86.74
2016-05-28T06:50:26.809Z,87.02
2016-05-28T06:51:29.750Z,86.45
2016-05-28T06:52:26.706Z,86.16
2016-05-28T06:53:29.677Z,86.25
2016-05-28T06:54:29.618Z,85.88
2016-05-28T06:55:29.573Z,86.16
2016-05-28T06:56:26.529Z,85.88
2016-05-28T06:57:29.689Z,85.49
2016-05-28T06:58:26.473Z,85.92
2016-05-28T06:59:26.475Z,85.58
2016-05-28T07:00:29.555Z,85.49
2016-05-28T07:01:26.386Z,85.58
2016-05-28T07:02:26.249Z,85.68
2016-05-28T07:03:29.391Z,85.39
2016-05-28T07:04:29.004Z,85.01
2016-05-28T07:05:31.975Z,85.25
2016-05-28T07:06:26.040Z,85.01
2016-05-28T07:07:26.012Z,84.95
2016-05-28T07:08:26.358Z,84.77
2016-05-28T07:09:25.924Z,84.95
2016-05-28T07:10:25.863Z,84.86
2016-05-28T07:11:25.820Z,85.05
2016-05-28T07:12:25.775Z,84.38
2016-05-28T07:13:25.731Z,84.48
2016-05-28T07:14:25.671Z,84.48
2016-05-28T07:15:28.689Z,84.09
2016-05-28T07:16:30.005Z,84.38
2016-05-28T07:17:28.554Z,84.19
2016-05-28T07:18:25.495Z,84.09
2016-05-28T07:19:28.544Z,83.81
2016-05-28T07:20:28.687Z,83.71
2016-05-28T07:21:25.346Z,83.42
2016-05-28T07:22:25.365Z,83.56
2016-05-28T07:23:25.477Z,83.37
2016-05-28T07:24:28.230Z,83.37
2016-05-28T07:25:28.014Z,83.47
2016-05-28T07:26:25.125Z,82.6
2016-05-28T07:27:25.097Z,83.08
2016-05-28T07:28:25.036Z,83.08
2016-05-28T07:29:27.978Z,82.89
2016-05-28T07:30:24.933Z,82.98
2016-05-28T07:31:24.904Z,83.08
2016-05-28T07:32:24.689Z,82.98
2016-05-28T07:33:24.801Z,83.18
2016-05-28T07:34:24.772Z,82.79
2016-05-28T07:35:30.727Z,82.89
2016-05-28T07:36:24.668Z,82.85
2016-05-28T07:37:24.624Z,82.85
2016-05-28T07:38:30.579Z,83.14
2016-05-28T07:39:24.520Z,83.33
2016-05-28T07:40:24.491Z,83.08
2016-05-28T07:41:27.447Z,82.7
2016-05-28T07:42:27.449Z,82.31
2016-05-28T07:43:24.202Z,81.84
2016-05-28T07:44:24.299Z,81.16
2016-05-28T07:45:24.301Z,81.84
2016-05-28T07:46:24.210Z,81.59
2016-05-28T07:47:24.212Z,81.59
2016-05-28T07:48:30.153Z,81.01
2016-05-28T07:49:24.484Z,81.2
2016-05-28T07:50:24.065Z,81.1
2016-05-28T07:51:24.192Z,80.53
2016-05-28T07:52:26.930Z,80.43
2016-05-28T07:53:23.886Z,80.34
2016-05-28T07:54:23.856Z,79.67
2016-05-28T07:55:23.797Z,79.38
2016-05-28T07:56:23.769Z,79.86
2016-05-28T07:57:26.709Z,79.19
2016-05-28T07:58:26.665Z,79.19
2016-05-28T07:59:23.620Z,79.19
2016-05-28T08:00:29.607Z,78.99
2016-05-28T08:01:23.720Z,79.19
2016-05-28T08:02:26.550Z,79.32
2016-05-28T08:03:23.506Z,79.42
2016-05-28T08:04:23.712Z,79.03
2016-05-28T08:05:23.590Z,79.32
2016-05-28T08:06:23.296Z,79.19
2016-05-28T08:07:23.235Z,79.19
2016-05-28T08:08:23.191Z,79.19
2016-05-28T08:09:26.163Z,79.38
2016-05-28T08:10:23.307Z,79.19
2016-05-28T08:11:26.074Z,79.28
2016-05-28T08:12:23.030Z,79.38
2016-05-28T08:13:22.955Z,78.8
2016-05-28T08:14:22.957Z,78.52
2016-05-28T08:15:22.882Z,78.52
2016-05-28T08:16:23.041Z,78.03
2016-05-28T08:17:25.997Z,78.13
2016-05-28T08:18:22.734Z,77.94
2016-05-28T08:19:22.909Z,77.94
2016-05-28T08:20:22.958Z,77.26
2016-05-28T08:21:22.634Z,77.46
2016-05-28T08:22:31.604Z,76.98
2016-05-28T08:23:22.528Z,76.73
2016-05-28T08:24:22.484Z,76.64
2016-05-28T08:25:22.440Z,76.06
2016-05-28T08:26:22.661Z,75.29
2016-05-28T08:27:22.368Z,75.38
2016-05-28T08:28:22.480Z,74.65
2016-05-28T08:29:22.451Z,74.46
2016-05-28T08:30:25.204Z,73.98
2016-05-28T08:31:25.175Z,73.88
2016-05-28T08:32:22.116Z,73.88
2016-05-28T08:33:27.149Z,73.88
2016-05-28T08:34:34.636Z,73.69
2016-05-28T08:35:23.374Z,73.41
2016-05-28T08:36:22.032Z,73.5
2016-05-28T08:37:24.722Z,73.21
2016-05-28T08:38:25.757Z,73.41
2016-05-28T08:39:24.807Z,73.41
2016-05-28T08:40:24.747Z,73.5
2016-05-28T08:41:21.890Z,73.11
2016-05-28T08:42:21.877Z,73.21
2016-05-28T08:43:23.317Z,73.31
2016-05-28T08:44:24.554Z,73.11
2016-05-28T08:45:21.510Z,73.21
2016-05-28T08:46:27.497Z,73.41
2016-05-28T08:47:24.453Z,73.11
2016-05-28T08:48:22.081Z,73.11
2016-05-28T08:49:21.349Z,73.11
2016-05-28T08:50:21.337Z,73.41
2016-05-28T08:51:21.260Z,73.11
2016-05-28T08:52:21.216Z,73.02
2016-05-28T08:53:21.157Z,73.41
2016-05-28T08:54:21.112Z,73.56
2016-05-28T08:55:21.084Z,73.37
2016-05-28T08:56:20.868Z,73.31
2016-05-28T08:57:20.980Z,72.92
2016-05-28T08:58:20.919Z,72.44
2016-05-28T08:59:20.891Z,71.81
2016-05-28T09:00:20.831Z,71.71
2016-05-28T09:01:20.787Z,70.94
2016-05-28T09:02:20.758Z,70.46
2016-05-28T09:03:20.950Z,70.56
2016-05-28T09:04:20.670Z,70.11
2016-05-28T09:05:21.111Z,69.82
2016-05-28T09:06:20.425Z,69.44
2016-05-28T09:07:20.522Z,69.73
2016-05-28T09:08:20.477Z,69.34
2016-05-28T09:09:20.433Z,69.34
2016-05-28T09:10:23.390Z,69.44
2016-05-28T09:11:20.346Z,69.44
2016-05-28T09:12:20.332Z,69.06
2016-05-28T09:13:23.116Z,69.34
2016-05-28T09:14:20.213Z,69.06
2016-05-28T09:15:20.372Z,68.86
2016-05-28T09:16:20.109Z,68.86
2016-05-28T09:17:26.143Z,69.15
2016-05-28T09:18:20.052Z,68.38
2016-05-28T09:19:19.992Z,68.8
2016-05-28T09:20:20.182Z,68.41
2016-05-28T09:21:19.887Z,68.29
2016-05-28T09:22:22.860Z,68.86
2016-05-28T09:23:28.659Z,68.76
2016-05-28T09:24:19.818Z,68.76
2016-05-28T09:25:19.712Z,68.19
2016-05-28T09:26:22.559Z,67.83
2016-05-28T09:27:25.654Z,67.93
2016-05-28T09:28:19.578Z,67.55
2016-05-28T09:29:22.566Z,67.93
2016-05-28T09:30:22.506Z,67.35
2016-05-28T09:31:19.525Z,66.88
2016-05-28T09:32:19.434Z,66.3
2016-05-28T09:33:22.591Z,66.24
2016-05-28T09:34:19.360Z,65.85
2016-05-28T09:35:19.988Z,66.04
2016-05-28T09:36:22.069Z,65.27
2016-05-28T09:37:19.196Z,64.98
2016-05-28T09:38:19.543Z,64.73
2016-05-28T09:39:19.077Z,65.11
2016-05-28T09:40:19.048Z,64.53
2016-05-28T09:41:18.989Z,64.34
2016-05-28T09:42:21.960Z,64.34
2016-05-28T09:43:21.916Z,63.76
2016-05-28T09:44:18.856Z,63.95
2016-05-28T09:45:19.124Z,63.85
2016-05-28T09:46:18.783Z,63.76
2016-05-28T09:47:18.583Z,63.85
2016-05-28T09:48:18.696Z,63.38
2016-05-28T09:49:18.635Z,63.28
2016-05-28T09:50:19.059Z,62.99
2016-05-28T09:51:21.562Z,62.51
2016-05-28T09:52:18.518Z,62.51
2016-05-28T09:53:18.458Z,62.12
2016-05-28T09:54:18.445Z,62.32
2016-05-28T09:55:21.386Z,62.22
2016-05-28T09:56:18.326Z,61.77
2016-05-28T09:57:18.500Z,61.87
2016-05-28T09:58:18.503Z,61.68
2016-05-28T09:59:18.272Z,61.74
2016-05-28T10:00:18.181Z,61.35
2016-05-28T10:01:21.136Z,61.25
2016-05-28T10:02:21.779Z,61.35
2016-05-28T10:03:18.032Z,61.19
2016-05-28T10:04:17.989Z,61
2016-05-28T10:05:18.006Z,60.52
2016-05-28T10:06:17.915Z,60.71
2016-05-28T10:07:24.419Z,59.84
2016-05-28T10:08:18.061Z,59.75
2016-05-28T10:09:17.767Z,59.2
2016-05-28T10:10:17.911Z,58.81
2016-05-28T10:11:17.883Z,58.72
2016-05-28T10:12:17.650Z,58.62
2016-05-28T10:13:17.590Z,58.72
2016-05-28T10:14:17.562Z,58.07
2016-05-28T10:15:20.518Z,57.75
2016-05-28T10:16:17.474Z,57.17
2016-05-28T10:17:19.242Z,57.27
2016-05-28T10:18:17.573Z,57.17
2016-05-28T10:19:17.326Z,57.07
2016-05-28T10:20:17.718Z,57.17
2016-05-28T10:21:20.252Z,56.88
2016-05-28T10:22:17.193Z,56.98
2016-05-28T10:23:17.165Z,56.49
2016-05-28T10:24:17.120Z,56.4
2016-05-28T10:25:17.075Z,56.43
2016-05-28T10:26:17.016Z,55.94
2016-05-28T10:27:16.987Z,55.85
2016-05-28T10:28:19.787Z,56.14
2016-05-28T10:29:16.898Z,55.82
2016-05-28T10:30:16.855Z,55.54
2016-05-28T10:31:16.654Z,55.63
2016-05-28T10:32:18.361Z,55.34
2016-05-28T10:33:16.722Z,54.96
2016-05-28T10:34:16.678Z,55.27
2016-05-28T10:35:16.572Z,55.46
2016-05-28T10:36:16.621Z,54.79
2016-05-28T10:37:22.561Z,54.4
2016-05-28T10:38:16.547Z,54.02
2016-05-28T10:39:16.488Z,53.53
2016-05-28T10:40:16.397Z,53.83
2016-05-28T10:41:16.572Z,53.34
2016-05-28T10:42:16.324Z,53.25
2016-05-28T10:43:16.296Z,53.34
2016-05-28T10:44:19.752Z,53.27
2016-05-28T10:45:19.207Z,52.79
2016-05-28T10:46:16.163Z,52.5
2016-05-28T10:47:16.119Z,52.11
2016-05-28T10:48:16.059Z,51.92
2016-05-28T10:49:16.031Z,51.44
2016-05-28T10:50:17.174Z,51.44
2016-05-28T10:51:15.943Z,51.73
2016-05-28T10:52:18.914Z,51.53
2016-05-28T10:53:15.854Z,51.44
2016-05-28T10:54:15.810Z,51.63
2016-05-28T10:55:15.610Z,51.73
2016-05-28T10:56:15.581Z,51.63
2016-05-28T10:57:15.678Z,51.53
2016-05-28T10:58:18.649Z,51.44
2016-05-28T10:59:18.792Z,51.63
2016-05-28T11:00:15.764Z,51.05
2016-05-28T11:01:15.516Z,50.96
2016-05-28T11:02:15.676Z,50.96
2016-05-28T11:03:15.428Z,50.76
2016-05-28T11:04:18.384Z,50.47
2016-05-28T11:05:15.558Z,50.96
2016-05-28T11:06:15.295Z,49.99
2016-05-28T11:07:15.251Z,50.01
2016-05-28T11:08:15.222Z,49.82
2016-05-28T11:09:15.163Z,49.73
2016-05-28T11:10:18.119Z,49.34
2016-05-28T11:11:18.090Z,49.46
2016-05-28T11:12:15.046Z,49.37
2016-05-28T11:13:15.596Z,48.59
2016-05-28T11:14:14.958Z,48.23
2016-05-28T11:15:14.929Z,47.74
2016-05-28T11:16:20.869Z,47.65
2016-05-28T11:17:17.841Z,47.65
2016-05-28T11:18:14.985Z,47.94
2016-05-28T11:19:14.940Z,47.65
2016-05-28T11:20:15.333Z,47.65
2016-05-28T11:21:20.852Z,47.65
2016-05-28T11:22:14.621Z,47.36
2016-05-28T11:23:17.575Z,47.07
2016-05-28T11:24:14.531Z,46.88
2016-05-28T11:25:20.487Z,46.97
2016-05-28T11:26:17.490Z,46.88
2016-05-28T11:27:17.398Z,46.68
2016-05-28T11:28:17.370Z,46.78
2016-05-28T11:29:17.326Z,46.1
2016-05-28T11:30:14.626Z,45.93
2016-05-28T11:31:17.440Z,45.83
2016-05-28T11:32:14.178Z,45.54
2016-05-28T11:33:14.150Z,45.74
2016-05-28T11:34:14.293Z,45.16
2016-05-28T11:35:14.889Z,44.89
2016-05-28T11:36:14.016Z,44.79
2016-05-28T11:37:16.956Z,44.98
2016-05-28T11:38:16.944Z,44.89
2016-05-28T11:39:13.947Z,44.57
2016-05-28T11:40:13.855Z,44.96
2016-05-28T11:41:13.797Z,44.57
2016-05-28T11:42:16.783Z,44.77
2016-05-28T11:43:13.707Z,44.87
2016-05-28T11:44:13.679Z,44.67
2016-05-28T11:45:13.463Z,44.67
2016-05-28T11:46:16.591Z,43.63
2016-05-28T11:47:13.938Z,43.63
2016-05-28T11:48:13.486Z,43.73
2016-05-28T11:49:16.488Z,43.41
2016-05-28T11:50:16.430Z,43.73
2016-05-28T11:51:13.385Z,43.63
2016-05-28T11:52:13.341Z,43.54
2016-05-28T11:53:13.296Z,43.15
2016-05-28T11:54:13.252Z,43.05
2016-05-28T11:55:16.224Z,42.86
2016-05-28T11:56:13.165Z,42.3
2016-05-28T11:57:13.120Z,42.1
2016-05-28T11:58:13.123Z,42
2016-05-28T11:59:13.047Z,41.52
2016-05-28T12:00:13.004Z,41.82
2016-05-28T12:01:12.959Z,41.52
2016-05-28T12:02:12.928Z,41.72
2016-05-28T12:03:15.886Z,41.52
2016-05-28T12:04:16.093Z,41.42
2016-05-28T12:05:12.796Z,41.83
2016-05-28T12:06:12.845Z,41.45
2016-05-28T12:07:15.710Z,40.67
2016-05-28T12:08:12.663Z,40.48
2016-05-28T12:09:12.618Z,40.38
2016-05-28T12:10:12.590Z,39.53
2016-05-28T12:11:12.546Z,39.24
2016-05-28T12:12:12.502Z,38.95
2016-05-28T12:13:15.476Z,38.45
2016-05-28T12:14:12.398Z,38.45
2016-05-28T12:15:12.369Z,38.73
2016-05-28T12:16:12.341Z,38.71
2016-05-28T12:17:12.296Z,38.73
2016-05-28T12:18:12.252Z,38.15
2016-05-28T12:19:12.208Z,38.25
2016-05-28T12:20:12.367Z,38.15
2016-05-28T12:21:12.135Z,37.77
2016-05-28T12:22:15.093Z,37.87
2016-05-28T12:23:12.093Z,37.28
2016-05-28T12:24:12.018Z,37.11
2016-05-28T12:25:11.990Z,37.01
2016-05-28T12:26:11.930Z,37.21
2016-05-28T12:27:11.870Z,36.8
2016-05-28T12:28:11.857Z,36.51
2016-05-28T12:29:11.625Z,36.43
2016-05-28T12:30:11.769Z,36.04
2016-05-28T12:31:11.709Z,35.75
2016-05-28T12:32:11.680Z,35.85
2016-05-28T12:33:11.854Z,35.94
2016-05-28T12:34:14.779Z,35.28
2016-05-28T12:35:11.579Z,34.99
2016-05-28T12:36:11.534Z,34.61
2016-05-28T12:37:11.320Z,34.41
2016-05-28T12:38:11.478Z,34.31
2016-05-28T12:39:11.387Z,33.44
2016-05-28T12:40:11.359Z,33.92
2016-05-28T12:41:11.330Z,33.54
2016-05-28T12:42:11.317Z,33.34
2016-05-28T12:43:14.225Z,33.56
2016-05-28T12:44:11.166Z,33.26
2016-05-28T12:45:11.153Z,32.68
2016-05-28T12:46:11.108Z,32.6
2016-05-28T12:47:14.050Z,32.02
2016-05-28T12:48:11.005Z,31.63
2016-05-28T12:49:10.976Z,31.63
2016-05-28T12:50:12.104Z,31.44
2016-05-28T12:51:22.921Z,31.53
2016-05-28T12:52:10.843Z,31.63
2016-05-28T12:53:10.658Z,31.73
2016-05-28T12:54:10.771Z,31.62
2016-05-28T12:55:10.710Z,31.81